createdAt,value
2023-04-18T00:02:04.457Z,5.00
2023-04-18T00:04:34.664Z,5.28
2023-04-18T00:07:02.724Z,4.93
2023-04-18T00:09:30.665Z,5.07
2023-04-18T00:11:58.285Z,5.28
2023-04-18T00:14:26.451Z,5.28
2023-04-18T00:16:54.386Z,5.35
2023-04-18T00:19:22.315Z,5.15
2023-04-18T00:21:53.498Z,4.93
2023-04-18T00:24:21.213Z,5.15
2023-04-18T00:26:49.505Z,5.70
2023-04-18T00:29:17.085Z,5.20
2023-04-18T00:31:44.735Z,5.70
2023-04-18T00:34:12.953Z,4.97
2023-04-18T00:36:41.154Z,5.90
2023-04-18T00:39:10.763Z,5.25
2023-04-18T00:41:38.743Z,5.93
2023-04-18T00:44:06.941Z,5.45
2023-04-18T00:46:35.074Z,5.57
2023-04-18T00:49:03.260Z,4.63
2023-04-18T00:51:31.245Z,5.28
2023-04-18T00:53:59.052Z,5.18
2023-04-18T00:56:28.761Z,5.50
2023-04-18T00:58:57.930Z,5.03
2023-04-18T01:01:25.685Z,6.10
2023-04-18T01:03:53.524Z,5.53
2023-04-18T01:06:21.632Z,5.30
2023-04-18T01:08:49.521Z,5.72
2023-04-18T01:11:17.378Z,5.10
2023-04-18T01:13:59.838Z,5.18
2023-04-18T01:16:28.960Z,5.22
2023-04-18T01:18:57.078Z,5.10
2023-04-18T01:21:25.249Z,5.15
2023-04-18T01:23:54.575Z,5.33
2023-04-18T01:26:24.130Z,5.03
2023-04-18T01:28:51.738Z,6.20
2023-04-18T01:31:19.774Z,5.80
2023-04-18T01:33:47.708Z,5.50
2023-04-18T01:36:15.895Z,5.40
2023-04-18T01:38:43.807Z,5.80
2023-04-18T01:41:11.690Z,5.72
2023-04-18T01:43:41.035Z,5.18
2023-04-18T01:46:08.866Z,5.50
2023-04-18T01:48:36.649Z,5.50
2023-04-18T01:51:04.745Z,5.28
2023-04-18T01:53:33.086Z,5.68
2023-04-18T01:56:00.669Z,5.28
2023-04-18T01:58:29.037Z,5.30
2023-04-18T02:00:58.255Z,5.47
2023-04-18T02:03:26.844Z,5.75
2023-04-18T02:05:54.715Z,5.63
2023-04-18T02:08:22.685Z,5.45
2023-04-18T02:10:50.574Z,5.22
2023-04-18T02:13:18.588Z,4.93
2023-04-18T02:15:46.797Z,5.35
2023-04-18T02:18:16.094Z,5.50
2023-04-18T02:20:43.836Z,5.47
2023-04-18T02:23:11.611Z,4.95
2023-04-18T02:25:39.182Z,5.23
2023-04-18T02:28:07.203Z,5.70
2023-04-18T02:30:35.263Z,6.03
2023-04-18T02:33:03.112Z,5.55
2023-04-18T02:35:32.279Z,5.13
2023-04-18T02:37:59.897Z,5.33
2023-04-18T02:40:27.736Z,5.10
2023-04-18T02:42:56.158Z,5.65
2023-04-18T02:45:23.766Z,5.28
2023-04-18T02:47:55.118Z,5.43
2023-04-18T02:50:24.241Z,5.70
2023-04-18T02:52:53.428Z,5.78
2023-04-18T02:55:21.975Z,5.90
2023-04-18T02:57:49.965Z,6.10
2023-04-18T03:00:18.269Z,6.05
2023-04-18T03:02:46.176Z,6.47
2023-04-18T03:05:13.839Z,6.38
2023-04-18T03:07:41.884Z,6.13
2023-04-18T03:10:11.769Z,5.70
2023-04-18T03:12:39.347Z,6.05
2023-04-18T03:15:08.592Z,5.67
2023-04-18T03:17:37.256Z,5.93
2023-04-18T03:20:05.723Z,6.07
2023-04-18T03:22:33.479Z,5.90
2023-04-18T03:25:01.118Z,6.28
2023-04-18T03:27:30.368Z,5.23
2023-04-18T03:29:58.126Z,6.03
2023-04-18T03:32:26.398Z,6.13
2023-04-18T03:34:54.104Z,5.78
2023-04-18T03:37:21.960Z,5.78
2023-04-18T03:39:49.962Z,5.93
2023-04-18T03:42:18.061Z,6.10
2023-04-18T03:44:47.058Z,6.22
2023-04-18T03:47:15.326Z,6.45
2023-04-18T03:49:43.255Z,5.75
2023-04-18T03:52:11.290Z,6.17
2023-04-18T03:54:39.074Z,6.47
2023-04-18T03:57:06.686Z,6.97
2023-04-18T03:59:34.495Z,6.50
2023-04-18T04:02:03.584Z,7.40
2023-04-18T04:04:31.499Z,6.63
2023-04-18T04:06:59.643Z,7.28
2023-04-18T04:09:27.501Z,5.95
2023-04-18T04:11:55.324Z,6.65
2023-04-18T04:14:24.702Z,7.50
2023-04-18T04:16:52.757Z,7.80
2023-04-18T04:19:22.167Z,7.28
2023-04-18T04:21:50.171Z,6.68
2023-04-18T04:24:17.743Z,7.55
2023-04-18T04:26:46.902Z,7.65
2023-04-18T04:29:16.302Z,6.53
2023-04-18T04:31:44.128Z,6.70
2023-04-18T04:34:12.202Z,6.68
2023-04-18T04:36:43.273Z,7.15
2023-04-18T04:39:11.728Z,7.25
2023-04-18T04:41:40.356Z,7.43
2023-04-18T04:44:09.886Z,7.13
2023-04-18T04:46:40.343Z,6.78
2023-04-18T04:49:08.497Z,7.10
2023-04-18T04:51:36.172Z,6.07
2023-04-18T04:54:05.898Z,6.73
2023-04-18T04:56:34.004Z,6.80
2023-04-18T04:59:02.263Z,6.78
2023-04-18T05:01:29.909Z,6.90
2023-04-18T05:03:57.795Z,6.57
2023-04-18T05:06:25.863Z,6.30
2023-04-18T05:08:53.526Z,6.85
2023-04-18T05:11:22.572Z,6.95
2023-04-18T05:13:50.520Z,6.93
2023-04-18T05:16:18.627Z,6.90
2023-04-18T05:18:46.540Z,7.17
2023-04-18T05:21:14.388Z,7.63
2023-04-18T05:23:42.612Z,7.57
2023-04-18T05:26:10.494Z,6.65
2023-04-18T05:28:39.846Z,7.65
2023-04-18T05:31:07.898Z,7.50
2023-04-18T05:33:35.907Z,7.78
2023-04-18T05:36:04.616Z,6.97
2023-04-18T05:38:32.591Z,6.97
2023-04-18T05:41:00.397Z,7.53
2023-04-18T05:43:28.054Z,7.87
2023-04-18T05:45:59.511Z,6.85
2023-04-18T05:48:27.140Z,6.72
2023-04-18T05:50:55.120Z,8.25
2023-04-18T05:53:22.683Z,7.50
2023-04-18T05:55:50.323Z,8.27
2023-04-18T05:58:18.239Z,7.80
2023-04-18T06:00:48.399Z,8.15
2023-04-18T06:03:17.518Z,7.22
2023-04-18T06:05:45.548Z,8.02
2023-04-18T06:08:13.258Z,7.73
2023-04-18T06:10:41.230Z,7.90
2023-04-18T06:13:08.781Z,8.57
2023-04-18T06:15:36.657Z,7.90
2023-04-18T06:18:04.296Z,8.00
2023-04-18T06:20:33.497Z,7.93
2023-04-18T06:23:01.057Z,8.18
2023-04-18T06:25:28.707Z,8.10
2023-04-18T06:27:56.466Z,7.18
2023-04-18T06:30:24.306Z,8.07
2023-04-18T06:32:51.923Z,7.03
2023-04-18T06:35:19.858Z,7.93
2023-04-18T06:37:48.777Z,7.40
2023-04-18T06:40:16.411Z,6.63
2023-04-18T06:42:44.316Z,7.50
2023-04-18T06:45:12.875Z,6.97
2023-04-18T06:47:41.175Z,6.80
2023-04-18T06:50:10.273Z,6.63
2023-04-18T06:52:40.658Z,6.78
2023-04-18T06:55:10.329Z,7.00
2023-04-18T06:57:38.124Z,7.03
2023-04-18T07:00:07.021Z,6.68
2023-04-18T07:02:36.898Z,6.88
2023-04-18T07:05:04.977Z,6.15
2023-04-18T07:07:33.567Z,6.88
2023-04-18T07:10:01.342Z,6.60
2023-04-18T07:12:30.297Z,7.18
2023-04-18T07:14:57.963Z,7.50
2023-04-18T07:17:25.578Z,7.68
2023-04-18T07:19:53.435Z,7.10
2023-04-18T07:22:21.385Z,7.20
2023-04-18T07:24:49.096Z,7.47
2023-04-18T07:27:16.844Z,6.70
2023-04-18T07:29:45.727Z,7.18
2023-04-18T07:32:13.497Z,6.82
2023-04-18T07:34:41.483Z,8.23
2023-04-18T07:37:09.339Z,6.80
2023-04-18T07:39:37.008Z,6.72
2023-04-18T07:42:05.275Z,6.45
2023-04-18T07:44:32.951Z,7.13
2023-04-18T07:47:02.112Z,6.67
2023-04-18T07:49:29.744Z,6.63
2023-04-18T07:51:57.699Z,7.13
2023-04-18T07:54:25.449Z,6.95
2023-04-18T07:56:53.165Z,6.63
2023-04-18T07:59:20.829Z,6.80
2023-04-18T08:01:48.750Z,6.90
2023-04-18T08:04:17.930Z,5.97
2023-04-18T08:06:45.729Z,6.93
2023-04-18T08:09:13.594Z,6.85
2023-04-18T08:11:41.874Z,6.83
2023-04-18T08:14:09.641Z,6.03
2023-04-18T08:16:37.700Z,6.93
2023-04-18T08:19:06.046Z,6.30
2023-04-18T08:21:35.153Z,6.03
2023-04-18T08:24:02.731Z,5.73
2023-04-18T08:26:30.335Z,6.25
2023-04-18T08:28:58.185Z,5.53
2023-04-18T08:31:25.955Z,5.45
2023-04-18T08:33:53.562Z,5.90
2023-04-18T08:36:21.454Z,5.83
2023-04-18T08:38:50.425Z,5.65
2023-04-18T08:41:22.419Z,5.15
2023-04-18T08:43:50.052Z,5.30
2023-04-18T08:46:19.052Z,5.25
2023-04-18T08:48:51.297Z,5.43
2023-04-18T08:51:19.039Z,4.97
2023-04-18T08:53:48.318Z,4.93
2023-04-18T08:56:17.599Z,5.32
2023-04-18T08:58:46.121Z,5.00
2023-04-18T09:01:15.059Z,4.97
2023-04-18T09:03:44.172Z,4.40
2023-04-18T09:06:14.569Z,4.47
2023-04-18T09:08:44.351Z,4.70
2023-04-18T09:11:24.197Z,4.50
2023-04-18T09:13:51.877Z,4.67
2023-04-18T09:16:20.786Z,4.20
2023-04-18T09:19:14.619Z,3.78
2023-04-18T09:21:46.554Z,4.60
2023-04-18T09:24:20.953Z,4.25
2023-04-18T09:26:50.975Z,4.30
2023-04-18T09:29:22.483Z,4.43
2023-04-18T09:32:00.055Z,4.57
2023-04-18T09:34:29.535Z,3.88
2023-04-18T09:37:07.908Z,4.05
2023-04-18T09:39:35.748Z,6.13
2023-04-18T09:42:05.028Z,6.30
2023-04-18T09:44:33.483Z,5.30
2023-04-18T09:47:01.892Z,4.28
2023-04-18T09:49:29.727Z,4.47
2023-04-18T09:51:57.720Z,3.97
2023-04-18T09:54:26.231Z,3.97
2023-04-18T09:56:55.716Z,4.15
2023-04-18T09:59:36.600Z,4.07
2023-04-18T10:02:08.097Z,4.07
2023-04-18T10:04:37.563Z,3.63
2023-04-18T10:07:06.274Z,3.83
2023-04-18T10:09:36.770Z,4.10
2023-04-18T10:12:05.023Z,7.10
2023-04-18T10:14:35.050Z,4.57
2023-04-18T10:17:03.455Z,4.27
2023-04-18T10:19:31.934Z,3.65
2023-04-18T10:22:02.104Z,3.88
2023-04-18T10:24:53.298Z,3.78
2023-04-18T10:28:00.603Z,3.53
2023-04-18T10:30:52.550Z,4.00
2023-04-18T10:33:42.563Z,3.92
2023-04-18T10:36:20.025Z,3.60
2023-04-18T10:38:49.692Z,3.50
2023-04-18T10:41:22.623Z,4.05
2023-04-18T10:44:14.660Z,3.73
2023-04-18T10:47:04.494Z,3.60
2023-04-18T10:49:35.445Z,3.33
2023-04-18T10:52:05.977Z,3.45
2023-04-18T10:54:40.097Z,3.28
2023-04-18T10:57:09.013Z,2.80
2023-04-18T10:59:40.174Z,3.70
2023-04-18T11:02:20.003Z,4.00
2023-04-18T11:04:51.042Z,3.72
2023-04-18T11:07:18.635Z,3.50
2023-04-18T11:09:54.196Z,3.60
2023-04-18T11:12:21.873Z,3.50
2023-04-18T11:14:52.547Z,3.85
2023-04-18T11:17:23.865Z,4.20
2023-04-18T11:19:52.435Z,3.75
2023-04-18T11:22:20.035Z,4.70
2023-04-18T11:24:47.818Z,5.40
2023-04-18T11:27:16.069Z,3.65
2023-04-18T11:29:43.807Z,3.78
2023-04-18T11:32:11.780Z,3.88
2023-04-18T11:34:40.993Z,3.10
2023-04-18T11:37:08.816Z,3.95
2023-04-18T11:39:37.071Z,3.72
2023-04-18T11:42:04.974Z,3.20
2023-04-18T11:44:34.994Z,3.58
2023-04-18T11:47:03.771Z,3.07
2023-04-18T11:49:33.161Z,3.30
2023-04-18T11:52:02.239Z,3.08
2023-04-18T11:54:40.624Z,3.05
2023-04-18T11:57:19.508Z,3.05
2023-04-18T11:59:49.804Z,3.50
2023-04-18T12:02:17.648Z,3.00
2023-04-18T12:04:56.713Z,3.13
2023-04-18T12:07:34.888Z,3.88
2023-04-18T12:10:02.914Z,3.88
2023-04-18T12:12:30.686Z,3.10
2023-04-18T12:15:02.568Z,4.15
2023-04-18T12:17:30.797Z,3.70
2023-04-18T12:20:02.218Z,3.33
2023-04-18T12:22:43.166Z,3.70
2023-04-18T12:25:19.985Z,3.30
2023-04-18T12:27:52.302Z,2.70
2023-04-18T12:30:21.974Z,3.05
2023-04-18T12:32:52.513Z,3.15
2023-04-18T12:35:21.626Z,3.95
2023-04-18T12:37:52.094Z,4.20
2023-04-18T12:40:22.226Z,5.47
2023-04-18T12:42:51.460Z,5.82
2023-04-18T12:45:20.715Z,4.07
2023-04-18T12:47:50.512Z,5.00
2023-04-18T12:50:20.307Z,4.27
2023-04-18T12:52:48.428Z,4.28
2023-04-18T12:55:17.511Z,3.80
2023-04-18T12:57:45.506Z,3.70
2023-04-18T13:00:14.665Z,3.67
2023-04-18T13:02:44.295Z,3.57
2023-04-18T13:05:13.990Z,3.22
2023-04-18T13:07:42.633Z,5.20
2023-04-18T13:10:12.106Z,6.28
2023-04-18T13:12:42.826Z,3.80
2023-04-18T13:15:11.667Z,3.93
2023-04-18T13:17:40.135Z,3.67
2023-04-18T13:20:10.793Z,5.10
2023-04-18T13:22:38.638Z,3.72
2023-04-18T13:25:08.212Z,3.88
2023-04-18T13:27:35.959Z,3.77
2023-04-18T13:30:05.589Z,3.53
2023-04-18T13:32:33.518Z,3.92
2023-04-18T13:35:03.073Z,3.67
2023-04-18T13:37:31.211Z,4.95
2023-04-18T13:39:58.992Z,4.07
2023-04-18T13:42:26.705Z,3.92
2023-04-18T13:44:54.408Z,3.40
2023-04-18T13:47:23.530Z,3.42
2023-04-18T13:49:51.520Z,3.38
2023-04-18T13:52:19.098Z,3.90
2023-04-18T13:54:47.184Z,3.63
2023-04-18T13:57:14.932Z,6.70
2023-04-18T13:59:42.513Z,3.50
2023-04-18T14:02:11.233Z,3.47
2023-04-18T14:04:40.651Z,2.90
2023-04-18T14:07:09.142Z,2.17
2023-04-18T14:09:37.031Z,2.72
2023-04-18T14:12:05.305Z,2.97
2023-04-18T14:14:32.852Z,3.50
2023-04-18T14:17:00.600Z,3.90
2023-04-18T14:19:31.179Z,5.93
2023-04-18T14:22:00.253Z,3.97
2023-04-18T14:24:27.889Z,3.10
2023-04-18T14:26:57.786Z,3.15
2023-04-18T14:29:25.606Z,3.03
2023-04-18T14:31:53.194Z,2.92
2023-04-18T14:34:21.022Z,4.15
2023-04-18T14:36:48.893Z,2.75
2023-04-18T14:39:17.972Z,2.97
2023-04-18T14:41:45.848Z,2.60
2023-04-18T14:44:14.342Z,2.55
2023-04-18T14:46:43.465Z,2.55
2023-04-18T14:49:11.611Z,2.00
2023-04-18T14:51:39.181Z,2.58
2023-04-18T14:54:06.937Z,2.10
2023-04-18T14:56:36.152Z,1.67
2023-04-18T14:59:03.876Z,1.73
2023-04-18T15:01:31.549Z,1.58
2023-04-18T15:03:59.767Z,1.88
2023-04-18T15:06:28.371Z,2.13
2023-04-18T15:08:56.657Z,1.80
2023-04-18T15:11:24.500Z,1.42
2023-04-18T15:13:53.384Z,2.58
2023-04-18T15:16:21.088Z,2.67
2023-04-18T15:18:48.845Z,2.20
2023-04-18T15:21:16.402Z,2.17
2023-04-18T15:23:43.968Z,3.65
2023-04-18T15:26:11.716Z,4.53
2023-04-18T15:28:39.298Z,4.30
2023-04-18T15:31:09.475Z,4.83
2023-04-18T15:33:37.182Z,3.58
2023-04-18T15:36:05.740Z,2.60
2023-04-18T15:38:33.705Z,2.67
2023-04-18T15:41:01.230Z,2.30
2023-04-18T15:43:28.817Z,2.30
2023-04-18T15:45:56.519Z,1.83
2023-04-18T15:48:25.647Z,2.10
2023-04-18T15:50:53.210Z,2.60
2023-04-18T15:53:21.062Z,2.33
2023-04-18T15:55:48.635Z,1.60
2023-04-18T15:58:16.528Z,1.92
2023-04-18T16:00:44.351Z,2.30
2023-04-18T16:03:12.228Z,2.20
2023-04-18T16:05:41.790Z,2.58
2023-04-18T16:08:10.094Z,2.80
2023-04-18T16:10:38.118Z,3.95
2023-04-18T16:13:06.877Z,3.85
2023-04-18T16:15:45.835Z,4.40
2023-04-18T16:18:13.778Z,5.78
2023-04-18T16:20:42.751Z,4.90
2023-04-18T16:23:10.484Z,3.80
2023-04-18T16:25:38.221Z,3.75
2023-04-18T16:28:07.603Z,3.78
2023-04-18T16:30:35.160Z,3.42
2023-04-18T16:33:05.295Z,4.00
2023-04-18T16:35:33.735Z,4.35
2023-04-18T16:38:05.428Z,3.53
2023-04-18T16:40:35.012Z,3.38
2023-04-18T16:43:02.652Z,4.53
2023-04-18T16:45:30.363Z,3.77
2023-04-18T16:47:58.465Z,3.13
2023-04-18T16:50:26.321Z,3.20
2023-04-18T16:52:54.117Z,3.88
2023-04-18T16:55:23.528Z,3.35
2023-04-18T16:57:51.989Z,4.00
2023-04-18T17:00:19.983Z,4.32
2023-04-18T17:02:48.380Z,4.25
2023-04-18T17:05:16.593Z,4.22
2023-04-18T17:07:45.705Z,3.80
2023-04-18T17:10:13.421Z,5.40
2023-04-18T17:12:42.915Z,6.65
2023-04-18T17:15:11.517Z,4.22
2023-04-18T17:17:39.237Z,3.65
2023-04-18T17:20:08.517Z,4.70
2023-04-18T17:22:36.193Z,6.20
2023-04-18T17:25:05.999Z,5.38
2023-04-18T17:27:33.843Z,4.90
2023-04-18T17:30:02.846Z,5.18
2023-04-18T17:32:30.825Z,6.80
2023-04-18T17:34:58.612Z,5.13
2023-04-18T17:37:27.282Z,4.70
2023-04-18T17:39:57.229Z,9.55
2023-04-18T17:42:25.117Z,7.13
2023-04-18T17:44:52.671Z,5.10
2023-04-18T17:47:21.733Z,4.43
2023-04-18T17:49:49.486Z,4.50
2023-04-18T17:52:17.025Z,5.18
2023-04-18T17:54:44.898Z,4.28
2023-04-18T17:57:12.951Z,3.75
2023-04-18T17:59:40.577Z,3.67
2023-04-18T18:02:08.520Z,3.83
2023-04-18T18:04:38.081Z,4.15
2023-04-18T18:07:07.146Z,4.10
2023-04-18T18:09:35.150Z,4.70
2023-04-18T18:12:05.898Z,4.13
2023-04-18T18:14:33.914Z,4.40
2023-04-18T18:17:02.060Z,4.50
2023-04-18T18:19:29.683Z,4.68
2023-04-18T18:21:58.734Z,6.65
2023-04-18T18:24:27.054Z,5.30
2023-04-18T18:26:55.208Z,4.35
2023-04-18T18:29:25.076Z,4.78
2023-04-18T18:31:54.890Z,3.75
2023-04-18T18:34:22.651Z,3.90
2023-04-18T18:36:51.630Z,3.83
2023-04-18T18:39:21.110Z,3.50
2023-04-18T18:41:48.948Z,3.78
2023-04-18T18:44:16.841Z,4.32
2023-04-18T18:46:44.445Z,4.40
2023-04-18T18:49:12.360Z,4.00
2023-04-18T18:51:41.145Z,4.55
2023-04-18T18:54:08.781Z,4.55
2023-04-18T18:56:38.799Z,4.45
2023-04-18T18:59:06.607Z,4.50
2023-04-18T19:01:34.275Z,4.43
2023-04-18T19:04:02.587Z,4.38
2023-04-18T19:06:31.202Z,3.75
2023-04-18T19:08:59.117Z,3.90
2023-04-18T19:11:27.088Z,4.07
2023-04-18T19:13:56.079Z,4.50
2023-04-18T19:16:23.962Z,3.05
2023-04-18T19:18:51.964Z,3.63
2023-04-18T19:21:20.155Z,3.80
2023-04-18T19:23:48.026Z,3.90
2023-04-18T19:26:15.751Z,3.80
2023-04-18T19:28:43.593Z,3.60
2023-04-18T19:31:13.176Z,3.50
2023-04-18T19:33:41.508Z,3.50
2023-04-18T19:36:09.585Z,4.25
2023-04-18T19:38:37.650Z,4.03
2023-04-18T19:41:06.154Z,4.75
2023-04-18T19:43:34.699Z,5.28
2023-04-18T19:46:02.716Z,4.25
2023-04-18T19:48:31.730Z,5.50
2023-04-18T19:50:59.310Z,5.77
2023-04-18T19:53:27.410Z,4.53
2023-04-18T19:55:56.031Z,6.13
2023-04-18T19:58:37.834Z,4.97
2023-04-18T20:01:06.452Z,6.57
2023-04-18T20:03:35.845Z,5.93
2023-04-18T20:06:05.684Z,9.15
2023-04-18T20:08:33.667Z,7.03
2023-04-18T20:11:01.729Z,5.70
2023-04-18T20:13:29.917Z,7.38
2023-04-18T20:15:57.571Z,4.97
2023-04-18T20:18:25.378Z,10.80
2023-04-18T20:20:54.467Z,5.60
2023-04-18T20:23:22.527Z,4.00
2023-04-18T20:25:50.396Z,3.80
2023-04-18T20:28:18.075Z,4.50
2023-04-18T20:30:46.318Z,4.45
2023-04-18T20:33:14.653Z,4.05
2023-04-18T20:35:44.298Z,4.20
2023-04-18T20:38:14.853Z,4.45
2023-04-18T20:40:45.053Z,4.50
2023-04-18T20:43:13.744Z,4.47
2023-04-18T20:45:42.822Z,3.90
2023-04-18T20:48:10.834Z,3.45
2023-04-18T20:50:40.181Z,4.10
2023-04-18T20:53:07.872Z,4.10
2023-04-18T20:55:37.152Z,3.95
2023-04-18T20:58:05.170Z,4.30
2023-04-18T21:00:32.998Z,4.32
2023-04-18T21:03:00.876Z,4.70
2023-04-18T21:05:29.216Z,4.00
2023-04-18T21:07:59.581Z,3.92
2023-04-18T21:10:27.598Z,4.20
2023-04-18T21:12:56.565Z,4.20
2023-04-18T21:15:24.474Z,4.70
2023-04-18T21:17:52.980Z,4.03
2023-04-18T21:20:21.496Z,3.90
2023-04-18T21:22:49.279Z,3.80
2023-04-18T21:25:18.570Z,3.63
2023-04-18T21:27:46.202Z,4.22
2023-04-18T21:30:16.124Z,3.50
2023-04-18T21:32:43.938Z,3.80
2023-04-18T21:35:11.983Z,3.40
2023-04-18T21:37:39.796Z,3.80
2023-04-18T21:40:09.018Z,3.90
2023-04-18T21:42:37.099Z,3.17
2023-04-18T21:45:06.247Z,3.70
2023-04-18T21:47:35.169Z,3.78
2023-04-18T21:50:04.308Z,3.75
2023-04-18T21:52:32.199Z,3.67
2023-04-18T21:55:00.642Z,3.03
2023-04-18T21:57:28.231Z,3.65
2023-04-18T21:59:55.898Z,4.05
2023-04-18T22:02:23.959Z,3.50
2023-04-18T22:04:53.123Z,3.38
2023-04-18T22:07:21.615Z,3.57
2023-04-18T22:09:50.291Z,3.63
2023-04-18T22:12:18.521Z,3.83
2023-04-18T22:14:48.445Z,3.42
2023-04-18T22:17:16.197Z,3.70
2023-04-18T22:19:44.678Z,3.50
2023-04-18T22:22:14.015Z,3.53
2023-04-18T22:24:42.050Z,3.80
2023-04-18T22:27:09.672Z,4.03
2023-04-18T22:29:37.426Z,3.97
2023-04-18T22:32:05.287Z,3.63
2023-04-18T22:34:32.908Z,4.05
2023-04-18T22:37:00.711Z,3.60
2023-04-18T22:39:31.121Z,4.20
2023-04-18T22:41:58.906Z,3.65
2023-04-18T22:44:26.951Z,3.70
2023-04-18T22:46:55.657Z,4.13
2023-04-18T22:49:23.506Z,3.92
2023-04-18T22:51:54.644Z,4.22
2023-04-18T22:54:22.299Z,3.97
2023-04-18T22:56:51.380Z,4.20
2023-04-18T22:59:19.182Z,4.30
2023-04-18T23:01:46.834Z,5.10
2023-04-18T23:04:15.118Z,4.40
2023-04-18T23:06:42.973Z,4.55
2023-04-18T23:09:10.596Z,4.50
2023-04-18T23:11:38.341Z,5.47
2023-04-18T23:14:08.570Z,4.63
2023-04-18T23:16:36.785Z,4.82
2023-04-18T23:19:05.506Z,4.78
2023-04-18T23:21:33.468Z,5.20
2023-04-18T23:24:01.304Z,4.78
2023-04-18T23:26:29.115Z,5.70
2023-04-18T23:28:56.915Z,5.30
2023-04-18T23:31:26.207Z,5.72
2023-04-18T23:33:54.049Z,6.23
2023-04-18T23:36:21.858Z,5.07
2023-04-18T23:38:49.746Z,5.28
2023-04-18T23:41:17.602Z,5.93
2023-04-18T23:43:45.260Z,5.60
2023-04-18T23:46:13.312Z,5.50
2023-04-18T23:48:42.405Z,5.30
2023-04-18T23:51:10.034Z,5.60
2023-04-18T23:53:37.757Z,5.43
2023-04-18T23:56:05.801Z,5.55
2023-04-18T23:58:33.389Z,5.67
